Página principal
METAR-TAF:

METAR-TAF

Aeroportos :

Aeroporto de Oslo Gardermoen

Oslo, Noruega

latitude: 60-12N, longitude: 011-05E, altura: 208 m

Observação actual do tempo

O boletim foi feito há 31 minutos, às 09:20 UTC
Vento 4 kt de sul, variando entre este e oes-sudoeste
Temperatura 22°C
Humidade 35%
Pressão 1031 hPa
Visibilidade 10 km ou mais
sem nuvens abaixo de 1500 metros e sem cumulonimbus

METAR: ENGM 270920Z 18004KT 100V240 CAVOK 22/06 Q1031 NOSIG

Hora: 11:51 (09:51 UTC)

Previsão

Previsão válida de 27 às 06 UTC a 28 às 06 UTC
Vento 5 kt de nordeste
Visibilidade 10 km ou mais
sem nuvens abaixo de 1500 metros e sem cumulonimbus
Temporariamente
de 27 às 12 UTC a 27 às 18 UTC
Vento 10 kt de es-sudeste

TAF: ENGM 2706/2806 04005KT CAVOK TEMPO 2712/2718 11010KT

Observações e previsões do tempo de mais de 4000 aeroportos (mensagens METAR e TAF).

As estações disponíveis são os pontos amarelos e vermelhos sobre o mapa.

Mova o rato sobre o mapa para ver o nome da estação.

Depois clique no ponto para visualizar as observações e previsões meteorológicas.

Para alterar o mapa : clique nos botões verdes com uma cruz preta para aumentar o zoom; no botão verde com uma pitada de zoom; ou nas setas verdes para mapas adjacentes.


METAR-TAF: